Time;durP1;ratioP1;P1;durP2;ratioP2;P2;SDS_P1;SDS_P2;PMS_P1;PMS_P2;Temp;Humidity;BMP_temperature;BMP_pressure;BME280_temperature;BME280_humidity;BME280_pressure;Samples;Min_cycle;Max_cycle;Signal;HPM_P1;HPM_P2
2022/10/14 00:05:29;;;;;;;8.10;4.20;;;18.70;57.10;;;;;;21085990;28;20071;-60
2022/10/14 00:15:30;;;;;;;6.60;4.75;;;18.70;57.10;;;;;;21085358;28;20048;-58
2022/10/14 00:25:36;;;;;;;7.75;4.47;;;18.70;57.10;;;;;;21084336;28;20059;-57
2022/10/14 00:35:38;;;;;;;6.22;4.20;;;18.80;57.10;;;;;;21084178;28;20059;-57
2022/10/14 00:45:39;;;;;;;7.45;4.00;;;18.60;57.70;;;;;;21082383;28;20044;-57
2022/10/14 00:55:42;;;;;;;5.95;4.13;;;18.50;58.20;;;;;;21081943;28;20465;-56
2022/10/14 01:06:17;;;;;;;5.10;3.92;;;18.40;58.60;;;;;;21082110;28;20484;-60
2022/10/14 01:16:36;;;;;;;6.70;4.07;;;18.20;58.60;;;;;;21079886;28;20094;-59
2022/10/14 01:27:17;;;;;;;6.70;3.53;;;18.00;59.50;;;;;;21079999;28;20075;-58
2022/10/14 01:37:27;;;;;;;6.35;4.00;;;17.90;59.30;;;;;;21070148;28;20451;-58
2022/10/14 01:47:31;;;;;;;5.75;3.45;;;17.80;59.70;;;;;;21078192;28;20055;-56
2022/10/14 01:57:36;;;;;;;5.05;4.28;;;17.70;60.20;;;;;;21078371;28;20064;-56
2022/10/14 02:07:55;;;;;;;7.13;3.80;;;17.40;60.70;;;;;;21079343;28;20135;-58
2022/10/14 02:18:12;;;;;;;7.15;3.15;;;17.30;60.80;;;;;;21077953;28;20131;-57
2022/10/14 02:28:24;;;;;;;9.23;4.63;;;17.20;61.20;;;;;;21088119;28;20048;-58
2022/10/14 02:38:29;;;;;;;6.57;3.63;;;17.20;61.10;;;;;;21093328;28;20070;-58
2022/10/14 02:48:32;;;;;;;5.53;3.42;;;17.20;61.50;;;;;;21091564;28;20056;-59
2022/10/14 02:58:34;;;;;;;6.32;3.50;;;17.20;61.50;;;;;;21073478;28;20059;-57
2022/10/14 03:08:36;;;;;;;4.82;3.88;;;17.00;62.10;;;;;;21092003;28;20453;-57
2022/10/14 03:18:44;;;;;;;5.85;3.35;;;16.90;62.80;;;;;;21090890;28;20469;-57
2022/10/14 03:28:48;;;;;;;5.82;4.05;;;16.70;63.20;;;;;;21089909;28;20047;-57
2022/10/14 03:38:51;;;;;;;4.60;3.53;;;16.70;63.60;;;;;;21087698;28;20408;-57
2022/10/14 03:48:53;;;;;;;9.68;5.20;;;16.60;63.90;;;;;;21087607;28;20090;-58
2022/10/14 03:58:56;;;;;;;6.72;4.05;;;16.40;64.20;;;;;;21088043;28;20055;-56
2022/10/14 04:08:59;;;;;;;4.90;3.97;;;16.50;64.30;;;;;;21085784;28;20048;-58
2022/10/14 04:19:01;;;;;;;7.38;4.07;;;16.30;64.50;;;;;;21084767;28;20040;-57
2022/10/14 04:29:04;;;;;;;6.25;3.38;;;16.20;64.30;;;;;;21084268;28;20051;-58
2022/10/14 04:39:06;;;;;;;4.18;3.25;;;16.10;64.60;;;;;;21083208;28;20047;-58
2022/10/14 04:49:17;;;;;;;9.10;3.70;;;16.00;64.80;;;;;;21081665;28;20075;-58
2022/10/14 04:59:19;;;;;;;7.13;3.85;;;15.90;64.70;;;;;;21083178;28;20055;-60
2022/10/14 05:09:20;;;;;;;9.32;4.32;;;15.90;64.70;;;;;;21081112;28;20141;-57
2022/10/14 05:19:22;;;;;;;6.97;4.38;;;15.80;65.20;;;;;;21080894;28;20492;-61
2022/10/14 05:29:25;;;;;;;6.82;4.50;;;15.80;65.40;;;;;;21081267;28;20064;-58
2022/10/14 05:39:26;;;;;;;8.05;4.28;;;15.80;65.60;;;;;;21080826;28;20408;-59
2022/10/14 05:49:28;;;;;;;6.82;4.03;;;15.80;65.50;;;;;;21078669;28;20056;-57
2022/10/14 05:59:32;;;;;;;8.13;4.53;;;16.00;65.00;;;;;;21083941;28;20059;-58
2022/10/14 06:09:33;;;;;;;9.63;5.80;;;15.90;65.10;;;;;;21095491;28;20512;-59
2022/10/14 06:19:37;;;;;;;9.60;5.22;;;15.90;65.20;;;;;;21094776;28;20040;-61
2022/10/14 06:29:38;;;;;;;14.85;5.10;;;15.80;65.60;;;;;;21093237;28;20133;-56
2022/10/14 06:39:42;;;;;;;9.90;4.90;;;15.70;65.70;;;;;;21092384;28;20048;-60
2022/10/14 06:49:43;;;;;;;12.40;4.90;;;15.70;65.40;;;;;;21091618;28;20052;-57
2022/10/14 06:59:45;;;;;;;12.35;5.35;;;15.70;65.40;;;;;;21073615;28;20048;-58
2022/10/14 07:09:46;;;;;;;20.45;6.38;;;15.80;65.20;;;;;;21090264;28;20071;-58
2022/10/14 07:19:48;;;;;;;15.00;5.97;;;15.80;65.40;;;;;;21089274;28;20412;-58
2022/10/14 07:29:51;;;;;;;15.35;5.57;;;15.90;65.10;;;;;;21089205;28;20477;-59
2022/10/14 07:39:53;;;;;;;16.60;6.47;;;16.00;64.50;;;;;;21088111;28;20078;-57
2022/10/14 07:49:55;;;;;;;13.75;6.63;;;16.20;64.40;;;;;;21087463;28;20457;-58
2022/10/14 07:59:57;;;;;;;18.73;7.70;;;16.30;63.80;;;;;;21087395;28;20051;-58
2022/10/14 08:09:59;;;;;;;14.10;7.40;;;16.60;63.20;;;;;;21086302;28;20056;-58
2022/10/14 08:20:00;;;;;;;20.20;8.13;;;16.80;62.50;;;;;;21085056;28;20067;-60
2022/10/14 08:30:03;;;;;;;18.23;8.52;;;17.10;61.90;;;;;;21083703;28;20179;-59
2022/10/14 08:40:05;;;;;;;21.42;10.95;;;17.30;61.30;;;;;;21084705;28;20133;-58
2022/10/14 08:50:25;;;;;;;24.25;13.13;;;17.70;60.30;;;;;;21082796;28;20052;-58
2022/10/14 09:00:30;;;;;;;23.20;13.20;;;18.10;59.20;;;;;;21082700;28;20044;-57
2022/10/14 09:10:38;;;;;;;24.88;13.38;;;18.50;57.70;;;;;;21081807;28;20568;-58
2022/10/14 09:20:41;;;;;;;27.67;12.35;;;18.70;56.40;;;;;;21080949;28;20125;-57
2022/10/14 09:30:42;;;;;;;26.98;11.77;;;19.00;55.90;;;;;;21079972;28;20048;-57
2022/10/14 09:40:49;;;;;;;24.35;12.13;;;19.20;54.80;;;;;;21078639;28;20048;-59
2022/10/14 09:51:04;;;;;;;18.45;10.40;;;19.40;54.30;;;;;;21061557;28;20052;-57
2022/10/14 10:01:11;;;;;;;22.42;9.50;;;19.70;53.30;;;;;;21078069;28;20044;-59
2022/10/14 10:11:13;;;;;;;16.33;9.32;;;20.00;52.30;;;;;;21077812;28;20048;-56
2022/10/14 10:21:23;;;;;;;16.02;9.48;;;20.20;51.80;;;;;;21077830;28;20044;-60
2022/10/14 10:31:55;;;;;;;50.45;35.13;;;20.40;51.10;;;;;;21059087;28;20067;-59
2022/10/14 10:42:33;;;;;;;16.47;9.37;;;20.80;50.10;;;;;;21075840;28;20059;-59
2022/10/14 10:52:37;;;;;;;16.33;8.35;;;21.10;49.30;;;;;;21090030;28;20048;-56
2022/10/14 11:03:09;;;;;;;21.38;9.38;;;21.30;48.70;;;;;;21091067;28;20044;-61
2022/10/14 11:13:37;;;;;;;15.43;9.15;;;21.60;47.70;;;;;;21090106;28;20059;-58
2022/10/14 11:23:58;;;;;;;17.30;9.10;;;21.90;46.80;;;;;;21089384;28;20052;-57
2022/10/14 11:34:27;;;;;;;16.60;11.07;;;22.00;46.30;;;;;;21071106;28;20139;-58
2022/10/14 11:44:36;;;;;;;16.23;11.25;;;22.20;45.90;;;;;;21087657;28;20056;-58
2022/10/14 11:54:44;;;;;;;18.55;11.40;;;22.40;45.90;;;;;;21102108;28;20492;-60
2022/10/14 12:05:22;;;;;;;18.88;11.00;;;22.60;45.30;;;;;;21169968;28;20051;-57
2022/10/14 12:15:25;;;;;;;12.48;8.80;;;22.90;45.00;;;;;;20745140;28;20053;-59
2022/10/14 12:25:35;;;;;;;10.73;6.03;;;23.20;44.60;;;;;;20744714;28;20136;-59
2022/10/14 12:35:46;;;;;;;11.23;3.50;;;23.60;43.20;;;;;;20743891;28;20270;-57
2022/10/14 12:46:11;;;;;;;6.63;2.97;;;23.90;41.90;;;;;;20837635;28;20127;-62
2022/10/14 12:56:28;;;;;;;6.10;2.92;;;24.30;40.20;;;;;;21167022;28;20059;-58
2022/10/14 13:06:41;;;;;;;7.25;2.72;;;24.50;40.00;;;;;;21164891;28;20059;-59
2022/10/14 13:16:44;;;;;;;6.85;3.30;;;24.70;39.30;;;;;;21165500;28;20127;-61
2022/10/14 13:26:52;;;;;;;8.93;3.35;;;24.80;39.30;;;;;;21164131;28;20051;-59
2022/10/14 13:37:13;;;;;;;4.40;3.10;;;25.00;38.60;;;;;;21163940;28;20046;-61
2022/10/14 13:47:20;;;;;;;5.10;3.22;;;25.10;37.90;;;;;;21163271;28;20051;-60
2022/10/14 13:57:22;;;;;;;6.38;2.67;;;25.10;37.30;;;;;;21162739;28;20066;-61
2022/10/14 14:07:33;;;;;;;4.53;2.67;;;25.10;36.90;;;;;;21162963;28;20051;-61
2022/10/14 14:17:35;;;;;;;4.40;1.92;;;25.20;36.70;;;;;;21145184;28;20051;-61
2022/10/14 14:28:09;;;;;;;4.27;2.30;;;25.40;36.30;;;;;;21178056;28;20066;-58
2022/10/14 14:38:34;;;;;;;2.63;1.60;;;25.40;36.00;;;;;;20751839;28;20045;-60
2022/10/14 14:48:40;;;;;;;4.32;2.88;;;25.60;34.60;;;;;;20721214;28;20085;-61
2022/10/14 14:58:43;;;;;;;3.40;1.65;;;25.60;34.80;;;;;;20750279;28;20042;-61
2022/10/14 15:08:49;;;;;;;2.35;1.30;;;25.60;34.80;;;;;;20851628;28;20048;-57
2022/10/14 15:19:24;;;;;;;3.93;1.50;;;25.50;35.00;;;;;;21118491;28;20043;-60
2022/10/14 15:29:25;;;;;;;4.97;2.03;;;25.50;34.40;;;;;;21106044;28;20494;-64
2022/10/14 15:39:27;;;;;;;2.83;1.60;;;25.50;35.40;;;;;;21171790;28;20048;-63
2022/10/14 15:49:37;;;;;;;2.60;1.50;;;25.30;34.60;;;;;;21171293;28;20062;-64
2022/10/14 15:59:39;;;;;;;4.63;2.35;;;25.40;34.70;;;;;;21153812;28;20063;-64
2022/10/14 16:09:41;;;;;;;2.40;1.70;;;25.20;36.00;;;;;;21169831;28;20051;-68
2022/10/14 16:19:43;;;;;;;2.90;1.50;;;25.10;35.10;;;;;;21169372;28;20062;-64
2022/10/14 16:29:45;;;;;;;;;;;25.10;34.70;;;;;;21166959;28;20047;-62
2022/10/14 16:39:48;;;;;;;7.13;5.20;;;25.10;34.70;;;;;;21168765;28;19919;-69
2022/10/14 16:49:50;;;;;;;3.17;2.00;;;24.90;36.80;;;;;;21165907;28;20056;-60
2022/10/14 16:59:52;;;;;;;3.03;2.42;;;24.60;36.30;;;;;;21166883;28;20043;-68
2022/10/14 17:09:56;;;;;;;6.57;2.95;;;24.60;37.10;;;;;;21167107;28;20059;-63
2022/10/14 17:19:58;;;;;;;3.60;2.05;;;24.50;39.60;;;;;;21166086;28;20181;-63
2022/10/14 17:29:59;;;;;;;5.23;2.70;;;24.40;41.00;;;;;;21165735;28;20544;-61
2022/10/14 17:40:02;;;;;;;9.93;4.38;;;24.20;40.90;;;;;;21163643;28;20108;-63
2022/10/14 17:50:05;;;;;;;;;;;24.00;42.30;;;;;;21163071;28;20062;-70
2022/10/14 18:00:08;;;;;;;8.00;4.32;;;23.90;41.80;;;;;;21162440;28;20299;-64
2022/10/14 18:10:09;;;;;;;6.82;4.63;;;23.70;41.90;;;;;;21163632;28;20563;-72
2022/10/14 18:20:11;;;;;;;12.25;5.88;;;23.60;42.00;;;;;;21163296;28;20448;-63
2022/10/14 18:30:17;;;;;;;15.32;7.63;;;23.60;41.70;;;;;;21162577;28;20051;-68
2022/10/14 18:40:20;;;;;;;25.20;9.85;;;23.50;41.90;;;;;;21160742;28;20039;-64
2022/10/14 18:50:21;;;;;;;20.85;9.60;;;23.30;41.40;;;;;;21161080;28;20059;-68
2022/10/14 19:00:23;;;;;;;21.73;8.80;;;23.10;41.70;;;;;;21140923;28;20142;-69
2022/10/14 19:10:25;;;;;;;19.73;12.63;;;23.20;44.00;;;;;;21168841;28;20193;-77
2022/10/14 19:20:27;;;;;;;14.02;7.90;;;23.00;42.60;;;;;;21174716;28;20071;-71
2022/10/14 19:30:28;;;;;;;18.60;9.80;;;22.70;42.00;;;;;;21174817;28;20389;-64
2022/10/14 19:40:30;;;;;;;23.05;10.80;;;22.60;43.70;;;;;;21173625;28;20048;-64
2022/10/14 19:50:31;;;;;;;25.60;14.48;;;22.40;43.40;;;;;;21172838;28;20055;-65
2022/10/14 20:00:34;;;;;;;22.75;11.57;;;22.20;43.30;;;;;;21172014;28;20077;-63
2022/10/14 20:10:36;;;;;;;;;;;22.20;44.30;;;;;;21173092;28;20047;-59
2022/10/14 20:20:40;;;;;;;20.77;9.85;;;22.40;47.90;;;;;;21170713;28;19920;-58
2022/10/14 20:30:42;;;;;;;18.70;7.68;;;21.90;45.80;;;;;;21169786;28;20498;-60
2022/10/14 20:40:44;;;;;;;22.77;16.30;;;21.60;45.90;;;;;;21167616;28;20101;-58
2022/10/14 20:50:46;;;;;;;20.17;11.95;;;21.40;46.80;;;;;;21167106;28;20100;-58
2022/10/14 21:00:47;;;;;;;11.55;5.68;;;21.20;47.20;;;;;;21165541;28;20055;-59
2022/10/14 21:10:59;;;;;;;12.32;5.40;;;21.10;47.70;;;;;;21146984;28;20156;-58
2022/10/14 21:21:02;;;;;;;10.90;5.38;;;20.90;48.50;;;;;;21164638;28;20409;-59
2022/10/14 21:31:07;;;;;;;;;;;20.60;49.80;;;;;;21163933;28;20047;-57
2022/10/14 21:41:09;;;;;;;9.52;4.90;;;20.30;50.30;;;;;;21162945;28;19920;-58
2022/10/14 21:51:16;;;;;;;7.88;3.80;;;20.10;51.90;;;;;;21163144;28;20052;-59
2022/10/14 22:01:24;;;;;;;11.15;3.88;;;20.00;52.60;;;;;;21145036;28;20079;-58
2022/10/14 22:11:34;;;;;;;9.57;4.10;;;19.90;53.50;;;;;;21163449;28;20461;-60
2022/10/14 22:21:37;;;;;;;4.97;3.08;;;19.70;54.50;;;;;;21162172;28;20093;-58
2022/10/14 22:31:40;;;;;;;5.63;2.70;;;19.40;55.30;;;;;;21161705;28;20081;-58
2022/10/14 22:41:41;;;;;;;5.50;2.80;;;19.30;55.60;;;;;;21164537;28;20073;-58
2022/10/14 22:51:43;;;;;;;6.00;3.47;;;19.20;56.10;;;;;;21176966;28;20047;-59
2022/10/14 23:01:45;;;;;;;6.40;4.18;;;19.20;56.20;;;;;;21175947;28;20047;-58
2022/10/14 23:11:47;;;;;;;7.60;4.15;;;19.00;56.80;;;;;;21177079;28;20507;-58
2022/10/14 23:21:48;;;;;;;8.07;4.32;;;18.90;57.10;;;;;;21174461;28;20051;-57
2022/10/14 23:31:50;;;;;;;6.57;4.00;;;19.00;56.90;;;;;;21174098;28;20051;-60
2022/10/14 23:41:51;;;;;;;7.80;4.03;;;19.00;57.20;;;;;;21172646;28;20518;-59
2022/10/14 23:51:54;;;;;;;7.05;4.68;;;18.90;57.20;;;;;;21172950;28;20131;-57
